Time;durP1;ratioP1;P1;durP2;ratioP2;P2;SDS_P1;SDS_P2;PMS_P1;PMS_P2;Temp;Humidity;BMP_temperature;BMP_pressure;BME280_temperature;BME280_humidity;BME280_pressure;Samples;Min_cycle;Max_cycle;Signal;HPM_P1;HPM_P2
2023/12/03 00:01:15;;;;;;;14.02;8.23;;;-1.80;99.90;;;;;;4941534;29;20321;-79
2023/12/03 00:04:00;;;;;;;14.48;8.80;;;-1.80;99.90;;;;;;4909306;29;20044;-79
2023/12/03 00:06:28;;;;;;;12.27;7.93;;;-1.70;99.90;;;;;;4909793;29;20028;-78
2023/12/03 00:09:39;;;;;;;13.40;8.07;;;-1.80;99.90;;;;;;4909150;29;20313;-78
2023/12/03 00:15:38;;;;;;;15.15;8.77;;;-1.80;99.90;;;;;;4849370;29;20057;-78
2023/12/03 00:18:29;;;;;;;12.95;8.13;;;-1.90;99.90;;;;;;4837575;29;20099;-78
2023/12/03 00:21:30;;;;;;;13.65;8.48;;;-1.80;99.90;;;;;;4890418;29;20099;-78
2023/12/03 00:24:15;;;;;;;12.68;8.30;;;-1.80;99.90;;;;;;4876315;29;20076;-79
2023/12/03 00:26:40;;;;;;;12.15;8.30;;;-1.80;99.90;;;;;;4934318;29;20380;-78
2023/12/03 00:29:35;;;;;;;12.55;8.13;;;-1.80;99.90;;;;;;4932207;29;20039;-77
2023/12/03 00:32:01;;;;;;;13.63;8.07;;;-1.80;99.90;;;;;;4906301;29;20047;-77
2023/12/03 00:34:33;;;;;;;13.13;8.13;;;-1.90;99.90;;;;;;4930978;29;20175;-78
2023/12/03 00:37:17;;;;;;;13.95;8.05;;;-1.90;99.90;;;;;;4949418;29;20031;-78
2023/12/03 00:40:20;;;;;;;14.38;8.35;;;-1.90;99.90;;;;;;4933929;29;20027;-77
2023/12/03 00:42:58;;;;;;;12.55;8.00;;;-1.90;99.90;;;;;;4928138;29;20028;-78
2023/12/03 00:45:38;;;;;;;15.88;8.95;;;-2.00;99.90;;;;;;4908943;29;20330;-78
2023/12/03 00:48:29;;;;;;;14.85;8.48;;;-2.00;99.90;;;;;;4909086;29;20030;-77
2023/12/03 00:51:18;;;;;;;13.95;8.63;;;-2.00;99.90;;;;;;4943517;29;20027;-78
2023/12/03 00:54:04;;;;;;;14.77;9.10;;;-2.00;99.90;;;;;;4929691;29;20043;-78
2023/12/03 00:56:30;;;;;;;14.75;8.73;;;-2.00;99.90;;;;;;4896211;29;20441;-78
2023/12/03 00:58:56;;;;;;;14.13;8.63;;;-2.00;99.90;;;;;;4931738;29;20040;-77
2023/12/03 01:01:34;;;;;;;14.52;8.73;;;-1.90;99.90;;;;;;4912788;29;20020;-78
2023/12/03 01:04:00;;;;;;;12.77;7.93;;;-1.90;99.90;;;;;;4929357;29;20056;-78
2023/12/03 01:06:36;;;;;;;14.05;7.93;;;-2.00;99.90;;;;;;4910343;29;20099;-78
2023/12/03 01:09:06;;;;;;;14.60;8.02;;;-1.90;99.90;;;;;;4929008;29;20114;-79
2023/12/03 01:12:03;;;;;;;11.48;7.18;;;-1.90;99.90;;;;;;4933476;29;20042;-78
2023/12/03 01:14:38;;;;;;;12.77;7.88;;;-2.00;99.90;;;;;;4947443;29;20294;-78
2023/12/03 01:17:16;;;;;;;11.32;7.13;;;-1.90;99.90;;;;;;4914797;29;20032;-77
2023/12/03 01:19:45;;;;;;;12.02;7.45;;;-1.90;99.90;;;;;;4947940;29;20035;-77
2023/12/03 01:22:42;;;;;;;12.45;7.78;;;-2.00;99.90;;;;;;4947874;29;20140;-78
2023/12/03 01:25:11;;;;;;;13.65;8.05;;;-1.90;99.90;;;;;;4947710;29;20039;-77
2023/12/03 01:27:42;;;;;;;12.35;7.15;;;-2.00;99.90;;;;;;4914398;29;20028;-77
2023/12/03 01:30:20;;;;;;;12.30;7.70;;;-2.00;99.90;;;;;;4930149;29;20230;-77
2023/12/03 08:54:10;;;;;;;22.63;12.23;;;-2.30;99.90;;;;;;5915247;23;20039;31
2023/12/03 08:56:36;;;;;;;23.25;12.35;;;-2.20;99.90;;;;;;4924767;29;20052;-81
2023/12/03 08:59:06;;;;;;;20.42;12.40;;;-2.20;99.90;;;;;;4862213;29;20030;-81
2023/12/03 09:01:31;;;;;;;20.55;11.10;;;-2.10;99.90;;;;;;4921041;29;20032;-82
2023/12/03 09:03:58;;;;;;;22.52;11.77;;;-2.10;99.90;;;;;;4893698;29;20038;-81
2023/12/03 09:06:29;;;;;;;22.95;10.68;;;-2.00;99.90;;;;;;4893613;29;20321;-82
2023/12/03 09:08:55;;;;;;;23.52;12.27;;;-2.10;99.90;;;;;;4908395;29;20024;-81
2023/12/03 09:11:22;;;;;;;19.77;10.65;;;-2.00;99.90;;;;;;4893487;29;20020;-82
2023/12/03 09:14:02;;;;;;;20.90;10.50;;;-2.00;99.90;;;;;;4895991;29;20250;-78
2023/12/03 09:16:31;;;;;;;21.58;11.05;;;-1.90;99.90;;;;;;4908170;29;20091;-78
2023/12/03 09:18:57;;;;;;;19.88;11.15;;;-1.90;99.90;;;;;;4913935;29;20039;-79
2023/12/03 09:21:26;;;;;;;18.25;10.65;;;-1.90;99.90;;;;;;4909915;29;20028;-76
2023/12/03 09:23:51;;;;;;;20.40;10.65;;;-1.90;99.90;;;;;;4907855;29;20051;-80
2023/12/03 09:26:17;;;;;;;19.63;10.75;;;-1.90;99.90;;;;;;4901950;29;20271;-80
2023/12/03 09:28:46;;;;;;;18.73;10.57;;;-1.90;99.90;;;;;;4918656;29;20079;-79
2023/12/03 09:31:11;;;;;;;19.63;11.68;;;-1.80;99.90;;;;;;4910573;29;20043;-80
2023/12/03 09:33:37;;;;;;;18.55;10.75;;;-1.80;99.90;;;;;;4903375;29;20037;-74
2023/12/03 09:36:03;;;;;;;18.27;10.57;;;-1.80;99.90;;;;;;4891232;29;20032;-72
2023/12/03 09:38:29;;;;;;;19.77;11.15;;;-1.90;99.90;;;;;;4891895;29;20345;-73
2023/12/03 09:41:06;;;;;;;19.25;10.48;;;-1.80;99.90;;;;;;4891387;29;20076;-77
2023/12/03 09:43:36;;;;;;;21.38;11.52;;;-1.80;99.90;;;;;;4908329;29;20059;-72
2023/12/03 09:46:12;;;;;;;17.85;10.05;;;-1.70;99.90;;;;;;4919948;29;20068;-76
2023/12/03 09:48:48;;;;;;;17.50;10.23;;;-1.70;99.90;;;;;;4895162;29;20030;-78
2023/12/03 09:51:22;;;;;;;19.77;11.05;;;-1.70;99.90;;;;;;4891799;29;20103;-79
2023/12/03 09:53:57;;;;;;;19.42;10.73;;;-1.70;99.90;;;;;;4875072;29;20100;-77
2023/12/03 09:56:25;;;;;;;21.80;11.13;;;-1.60;99.90;;;;;;4873052;29;20045;-75
2023/12/03 09:58:58;;;;;;;17.50;9.80;;;-1.50;99.90;;;;;;4872134;29;20322;-79
2023/12/03 10:01:40;;;;;;;19.02;10.63;;;-1.40;99.90;;;;;;4872693;29;20272;-80
2023/12/03 10:04:08;;;;;;;19.98;10.68;;;-1.50;99.90;;;;;;4872338;29;20033;-80
2023/12/03 10:06:36;;;;;;;17.88;10.40;;;-1.30;99.90;;;;;;4872923;29;20025;-79
2023/12/03 10:09:04;;;;;;;17.48;10.52;;;-1.20;99.90;;;;;;4884823;29;20306;-81
2023/12/03 10:11:41;;;;;;;20.35;10.90;;;-1.10;99.90;;;;;;4891816;29;20059;-79
2023/12/03 10:14:19;;;;;;;20.67;11.18;;;-1.00;99.90;;;;;;4890587;29;20037;-80
2023/12/03 10:16:56;;;;;;;18.10;10.68;;;-1.00;99.90;;;;;;4888883;29;20037;-83
2023/12/03 10:19:27;;;;;;;19.05;10.85;;;-0.90;99.90;;;;;;4895291;29;20088;-78
2023/12/03 10:21:55;;;;;;;20.65;10.73;;;-0.80;99.90;;;;;;4906741;29;20024;-79
2023/12/03 10:24:21;;;;;;;19.13;11.00;;;-0.80;99.90;;;;;;4922562;29;20032;-80
2023/12/03 10:26:59;;;;;;;19.92;11.45;;;-0.60;99.90;;;;;;4890909;29;20035;-77
2023/12/03 10:29:25;;;;;;;;;;;-0.50;99.90;;;;;;4909217;29;20044;-79
2023/12/03 10:31:58;;;;;;;17.50;9.98;;;-0.50;99.90;;;;;;4891771;29;20105;-77
2023/12/03 10:34:26;;;;;;;17.08;9.93;;;-0.40;99.90;;;;;;4891577;29;20021;-78
2023/12/03 10:37:01;;;;;;;15.75;9.60;;;-0.30;99.90;;;;;;4907562;29;20099;-80
2023/12/03 10:39:29;;;;;;;16.48;10.75;;;0.00;99.90;;;;;;4906499;29;20043;-80
2023/12/03 10:41:55;;;;;;;15.48;9.38;;;0.20;99.90;;;;;;4907147;29;20036;-78
2023/12/03 10:44:24;;;;;;;19.10;9.52;;;0.40;99.90;;;;;;4905997;29;20037;-77
2023/12/03 10:46:57;;;;;;;16.13;9.88;;;0.60;99.90;;;;;;4888584;29;20088;-77
2023/12/03 10:49:30;;;;;;;17.38;9.75;;;0.90;99.90;;;;;;4888226;29;20060;-79
2023/12/03 10:52:02;;;;;;;15.55;9.68;;;1.30;99.80;;;;;;4871635;29;20049;-78
2023/12/03 10:54:48;;;;;;;14.48;9.45;;;1.70;99.40;;;;;;4887159;29;20057;-81
2023/12/03 10:57:27;;;;;;;14.45;9.45;;;2.00;98.00;;;;;;4888552;29;20029;-78
2023/12/03 11:00:17;;;;;;;15.27;9.60;;;2.40;96.50;;;;;;4888415;29;20021;-81
2023/12/03 11:03:33;;;;;;;15.00;9.43;;;2.80;95.60;;;;;;4894497;29;20064;-81
2023/12/03 11:06:10;;;;;;;15.07;10.00;;;3.30;94.60;;;;;;4902979;29;20294;-81
2023/12/03 11:09:07;;;;;;;13.40;8.93;;;3.40;93.10;;;;;;4893621;29;20027;-81
2023/12/03 11:12:02;;;;;;;13.70;9.48;;;3.50;93.20;;;;;;4907370;29;20117;-80
2023/12/03 11:15:08;;;;;;;15.00;9.88;;;3.80;92.70;;;;;;4893765;29;20067;-78
2023/12/03 11:17:40;;;;;;;14.35;9.77;;;4.00;92.20;;;;;;4868188;29;20081;-81
2023/12/03 11:20:42;;;;;;;13.50;9.48;;;4.30;92.20;;;;;;4900928;29;20180;-79
2023/12/03 11:23:45;;;;;;;12.65;9.32;;;5.10;90.80;;;;;;4832785;29;20048;-80
2023/12/03 11:26:24;;;;;;;13.27;9.18;;;5.70;89.40;;;;;;4906388;29;20039;-80
2023/12/03 11:29:03;;;;;;;12.95;9.27;;;6.10;88.20;;;;;;4897006;29;20029;-80
2023/12/03 11:31:58;;;;;;;12.35;9.32;;;6.90;86.50;;;;;;4905721;29;20036;-80
2023/12/03 11:34:48;;;;;;;17.02;10.23;;;7.80;82.90;;;;;;4888804;29;20032;-81
2023/12/03 11:44:33;;;;;;;13.27;8.52;;;7.60;77.00;;;;;;4903715;29;20104;-81
2023/12/03 11:47:12;;;;;;;12.88;9.40;;;8.80;76.90;;;;;;4870793;29;20040;-84
2023/12/03 11:50:16;;;;;;;12.50;9.50;;;8.00;77.80;;;;;;4848551;29;20041;-77
2023/12/03 11:52:45;;;;;;;14.40;9.93;;;7.60;79.50;;;;;;4847513;29;20045;-77
2023/12/03 11:55:22;;;;;;;14.15;10.23;;;7.60;78.90;;;;;;4852957;29;20041;-80
2023/12/03 11:58:08;;;;;;;15.07;9.70;;;7.50;78.70;;;;;;4866933;29;20034;-80
2023/12/03 12:00:38;;;;;;;14.97;10.50;;;6.80;80.00;;;;;;4874683;29;20039;-78
2023/12/03 12:03:16;;;;;;;12.77;9.57;;;6.60;81.50;;;;;;4906388;29;20473;-77
2023/12/03 12:05:55;;;;;;;13.10;9.38;;;6.60;81.70;;;;;;4905515;29;20028;-78
2023/12/03 12:08:42;;;;;;;13.48;9.40;;;6.80;81.30;;;;;;4889560;29;20032;-78
2023/12/03 12:11:22;;;;;;;13.80;9.30;;;6.90;80.40;;;;;;4890571;29;20024;-79
2023/12/03 12:13:48;;;;;;;14.48;10.35;;;7.00;80.60;;;;;;4888021;29;20067;-79
2023/12/03 12:16:25;;;;;;;13.02;9.95;;;7.20;79.70;;;;;;4887550;29;20037;-79
2023/12/03 12:18:53;;;;;;;15.13;10.18;;;6.90;80.10;;;;;;4905064;29;20212;-78
2023/12/03 12:21:22;;;;;;;;;;;6.80;80.80;;;;;;4906940;29;20322;-79
2023/12/03 12:23:51;;;;;;;13.60;9.75;;;6.80;80.80;;;;;;4905983;29;19943;-80
2023/12/03 12:26:17;;;;;;;14.25;9.52;;;6.60;81.60;;;;;;4888500;29;20074;-79
2023/12/03 12:28:49;;;;;;;13.40;9.80;;;6.60;81.10;;;;;;4890573;29;20314;-76
2023/12/03 12:31:19;;;;;;;14.15;9.70;;;6.80;81.20;;;;;;4886997;29;20029;-79
2023/12/03 12:33:46;;;;;;;14.00;9.65;;;6.60;81.10;;;;;;4870445;29;20028;-78
2023/12/03 12:36:24;;;;;;;14.88;9.95;;;6.00;82.10;;;;;;4886030;29;20061;-81
2023/12/03 12:38:50;;;;;;;14.13;9.82;;;5.50;84.30;;;;;;4887146;29;20096;-79
2023/12/03 12:41:19;;;;;;;14.75;10.10;;;5.60;84.10;;;;;;4886030;29;20057;-78
2023/12/03 12:44:12;;;;;;;15.75;9.73;;;5.10;85.50;;;;;;4891158;29;20024;-79
2023/12/03 12:47:09;;;;;;;14.05;9.77;;;4.60;87.00;;;;;;4889823;29;20048;-78
2023/12/03 12:49:36;;;;;;;14.47;9.57;;;4.40;88.70;;;;;;4890958;29;20116;-78
2023/12/03 12:52:12;;;;;;;15.35;9.27;;;4.80;87.50;;;;;;4897586;29;20469;-81
2023/12/03 12:55:28;;;;;;;14.25;9.77;;;4.70;87.40;;;;;;4890518;29;20049;-79
2023/12/03 12:57:59;;;;;;;16.90;10.10;;;4.50;88.00;;;;;;4888940;29;20036;-78
2023/12/03 13:00:38;;;;;;;14.90;9.85;;;4.80;87.60;;;;;;4874779;29;20032;-79
2023/12/03 13:03:06;;;;;;;15.25;9.05;;;4.80;88.10;;;;;;4900780;29;20048;-78
2023/12/03 13:05:32;;;;;;;14.57;9.30;;;4.80;87.50;;;;;;4892355;29;20036;-80
2023/12/03 13:07:58;;;;;;;14.05;9.30;;;4.90;87.30;;;;;;4909239;29;20350;-78
2023/12/03 13:10:44;;;;;;;14.10;9.02;;;4.70;87.60;;;;;;4898420;29;20037;-79
2023/12/03 13:13:48;;;;;;;13.65;9.13;;;4.50;87.70;;;;;;4875421;29;20041;-79
2023/12/03 13:16:25;;;;;;;15.48;8.50;;;4.10;89.20;;;;;;4816763;29;20037;-78
2023/12/03 13:18:57;;;;;;;14.32;9.55;;;3.40;90.80;;;;;;4895594;29;20059;-79
2023/12/03 13:21:23;;;;;;;16.63;10.35;;;3.60;90.90;;;;;;4913138;29;20302;-79
2023/12/03 13:24:04;;;;;;;15.48;9.15;;;3.60;90.30;;;;;;4912985;29;20084;-80
2023/12/03 13:26:30;;;;;;;18.20;9.85;;;3.30;90.80;;;;;;4908981;29;20063;-80
2023/12/03 13:28:56;;;;;;;16.13;9.55;;;3.10;90.70;;;;;;4894295;29;20327;-78
2023/12/03 13:31:25;;;;;;;13.90;8.80;;;2.80;91.50;;;;;;4901367;29;20020;-78
2023/12/03 13:34:05;;;;;;;15.23;9.20;;;2.80;91.70;;;;;;4909386;29;20032;-79
2023/12/03 13:36:32;;;;;;;16.65;9.65;;;2.60;92.00;;;;;;4876611;29;20040;-79
2023/12/03 13:39:03;;;;;;;13.57;8.85;;;2.50;92.00;;;;;;4891892;29;20040;-78
2023/12/03 13:41:30;;;;;;;15.50;8.30;;;2.50;92.20;;;;;;4909875;29;20032;-79
2023/12/03 13:47:15;;;;;;;13.77;8.20;;;3.30;91.10;;;;;;4876292;29;20041;-79
2023/12/03 13:49:41;;;;;;;17.77;9.20;;;3.60;90.60;;;;;;4884115;29;20028;-80
2023/12/03 13:52:46;;;;;;;15.50;8.88;;;3.50;90.40;;;;;;4907932;29;20021;-80
2023/12/03 13:55:37;;;;;;;14.32;8.65;;;3.80;90.00;;;;;;4886948;29;20037;-80
2023/12/03 13:58:06;;;;;;;13.30;8.50;;;3.90;89.00;;;;;;4887601;29;20029;-80
2023/12/03 14:00:41;;;;;;;14.23;8.57;;;3.70;89.60;;;;;;4903003;29;20084;-81
2023/12/03 14:03:20;;;;;;;16.27;9.55;;;3.60;90.20;;;;;;4887089;29;20040;-79
2023/12/03 14:05:59;;;;;;;15.40;8.45;;;3.90;90.00;;;;;;4872444;29;20053;-81
2023/12/03 14:08:33;;;;;;;15.00;9.27;;;3.50;90.30;;;;;;4888219;29;20060;-80
2023/12/03 14:11:14;;;;;;;15.05;9.38;;;3.10;90.80;;;;;;4875322;29;20059;-81
2023/12/03 14:14:08;;;;;;;19.02;9.88;;;2.80;91.60;;;;;;4861187;29;20105;-80
2023/12/03 14:17:48;;;;;;;18.55;9.50;;;2.50;92.00;;;;;;4868777;29;20048;-80
2023/12/03 14:20:15;;;;;;;16.48;9.30;;;2.50;92.60;;;;;;4802748;29;20434;-81
2023/12/03 14:26:42;;;;;;;16.60;9.20;;;2.40;92.70;;;;;;4886458;29;20035;-80
2023/12/03 14:29:12;;;;;;;14.60;8.65;;;2.40;92.80;;;;;;4871418;29;20025;-79
2023/12/03 14:32:07;;;;;;;14.48;8.40;;;2.40;92.50;;;;;;4873995;29;20082;-80
2023/12/03 14:34:56;;;;;;;15.55;8.95;;;2.20;93.10;;;;;;4902313;29;20025;-80
2023/12/03 14:37:24;;;;;;;15.32;9.30;;;2.10;93.30;;;;;;4898597;29;20363;-76
2023/12/03 14:43:05;;;;;;;18.30;9.90;;;2.20;93.30;;;;;;4830006;29;20042;-77
2023/12/03 14:45:31;;;;;;;17.55;10.07;;;1.90;94.00;;;;;;4828765;29;20204;-77
2023/12/03 14:47:56;;;;;;;20.65;10.40;;;1.60;94.40;;;;;;4813545;29;20073;-77
2023/12/03 14:50:23;;;;;;;16.35;9.95;;;1.20;95.40;;;;;;4812934;29;20034;-78
2023/12/03 14:52:49;;;;;;;18.33;10.38;;;0.90;96.00;;;;;;4831337;29;20221;-77
2023/12/03 14:55:15;;;;;;;18.90;10.05;;;0.60;96.70;;;;;;4812103;29;20332;-76
2023/12/03 14:57:47;;;;;;;17.33;9.77;;;0.40;97.60;;;;;;4826008;29;20038;-76
2023/12/03 15:00:16;;;;;;;22.08;11.38;;;0.30;98.00;;;;;;4810717;29;20465;-78
2023/12/03 15:02:49;;;;;;;17.80;10.27;;;0.10;98.30;;;;;;4836718;29;20196;-78
2023/12/03 15:05:15;;;;;;;17.35;10.48;;;0.00;98.50;;;;;;4832179;29;20332;-75
2023/12/03 15:07:43;;;;;;;17.52;9.95;;;-0.10;98.70;;;;;;4815859;29;20065;-76
2023/12/03 15:10:12;;;;;;;19.35;10.77;;;-0.30;99.10;;;;;;4816804;29;20103;-79
2023/12/03 15:12:58;;;;;;;19.75;10.90;;;-0.30;99.40;;;;;;4816345;29;20065;-79
2023/12/03 15:15:29;;;;;;;18.70;10.77;;;-0.40;99.80;;;;;;4848884;29;20041;-80
2023/12/03 15:17:55;;;;;;;19.00;10.82;;;-0.60;99.90;;;;;;4851536;29;20062;-76
2023/12/03 15:20:53;;;;;;;20.08;10.88;;;-0.60;99.90;;;;;;4889152;29;20044;-81
2023/12/03 15:23:35;;;;;;;;;;;-0.70;99.90;;;;;;4851000;29;20037;-79
2023/12/03 15:26:08;;;;;;;20.90;10.75;;;-0.70;99.90;;;;;;4849116;29;19908;-81
2023/12/03 15:28:37;;;;;;;22.25;11.65;;;-0.80;99.90;;;;;;4848854;29;20042;-81
2023/12/03 15:31:19;;;;;;;18.60;11.32;;;-0.90;99.90;;;;;;4835368;29;20045;-81
2023/12/03 15:33:51;;;;;;;20.35;11.57;;;-0.90;99.90;;;;;;4850663;29;20283;-78
2023/12/03 15:36:17;;;;;;;21.98;12.15;;;-1.00;99.90;;;;;;4834172;29;20041;-81
2023/12/03 15:38:43;;;;;;;20.88;12.07;;;-1.00;99.90;;;;;;4850113;29;20104;-75
2023/12/03 15:41:18;;;;;;;24.15;13.65;;;-1.10;99.90;;;;;;4850130;29;20343;-81
2023/12/03 15:43:45;;;;;;;25.17;14.30;;;-1.10;99.90;;;;;;4846817;29;20042;-81
2023/12/03 15:46:11;;;;;;;26.55;15.05;;;-1.10;99.90;;;;;;4816360;29;20454;-81
2023/12/03 15:48:37;;;;;;;25.75;14.57;;;-1.20;99.90;;;;;;4832602;29;20030;-81
2023/12/03 15:51:06;;;;;;;25.73;13.73;;;-1.20;99.90;;;;;;4832149;29;20041;-82
2023/12/03 15:53:31;;;;;;;26.92;14.52;;;-1.20;99.90;;;;;;4816879;29;20046;-76
2023/12/03 15:55:57;;;;;;;24.08;13.77;;;-1.30;99.90;;;;;;4847377;29;20126;-80
2023/12/03 15:58:31;;;;;;;24.90;14.23;;;-1.40;99.90;;;;;;4850184;29;20083;-81
2023/12/03 16:00:58;;;;;;;25.08;13.82;;;-1.50;99.90;;;;;;4870909;29;20039;-78
2023/12/03 16:03:33;;;;;;;28.05;15.35;;;-1.50;99.90;;;;;;4883891;29;20048;-79
2023/12/03 16:06:10;;;;;;;26.38;14.38;;;-1.60;99.90;;;;;;4887522;29;20044;-81
2023/12/03 16:08:49;;;;;;;26.33;15.90;;;-1.60;99.90;;;;;;4888843;29;20033;-80
2023/12/03 16:11:16;;;;;;;28.55;15.23;;;-1.60;99.90;;;;;;4885478;29;20045;-80
2023/12/03 16:13:42;;;;;;;27.65;15.48;;;-1.70;99.90;;;;;;4870424;29;20037;-78
2023/12/03 16:16:17;;;;;;;29.55;16.17;;;-1.70;99.90;;;;;;4870328;29;20339;-80
2023/12/03 16:18:42;;;;;;;28.52;16.13;;;-1.70;99.90;;;;;;4870559;29;20104;-79
2023/12/03 16:21:11;;;;;;;28.63;16.58;;;-1.70;99.90;;;;;;4891940;29;20040;-77
2023/12/03 16:23:39;;;;;;;31.30;15.98;;;-1.80;99.90;;;;;;4892909;29;20128;-80
2023/12/03 16:26:11;;;;;;;26.60;15.13;;;-1.70;99.90;;;;;;4876401;29;20099;-81
2023/12/03 16:29:06;;;;;;;30.20;16.77;;;-1.70;99.90;;;;;;4869001;29;20105;-81
2023/12/03 17:03:16;;;;;;;28.20;15.25;;;-2.10;99.90;;;;;;4777961;29;20100;-77
2023/12/03 17:06:13;;;;;;;27.15;14.27;;;-2.20;99.90;;;;;;4769573;30;20112;-81
2023/12/03 17:08:40;;;;;;;28.80;14.68;;;-2.20;99.90;;;;;;4769552;30;20032;-81
2023/12/03 17:15:55;;;;;;;28.95;15.10;;;-2.30;99.90;;;;;;4733969;30;20057;-83
2023/12/03 17:18:34;;;;;;;30.02;16.77;;;-2.30;99.90;;;;;;4754366;29;20366;-83
2023/12/03 17:21:17;;;;;;;30.15;16.70;;;-2.30;99.90;;;;;;4851065;29;20048;-83
2023/12/03 17:23:57;;;;;;;32.00;16.73;;;-2.30;99.90;;;;;;4875575;29;20053;-82
2023/12/03 17:26:30;;;;;;;31.40;16.58;;;-2.20;99.90;;;;;;4864621;29;20040;-83
2023/12/03 17:29:31;;;;;;;30.65;16.23;;;-2.20;99.90;;;;;;4865709;29;20338;-84
2023/12/03 17:32:02;;;;;;;30.45;16.33;;;-2.20;99.90;;;;;;4873641;29;20041;-82
2023/12/03 17:34:30;;;;;;;32.30;16.95;;;-2.20;99.90;;;;;;4877853;29;20025;-85
2023/12/03 17:37:09;;;;;;;;;;;;;;;;;;;;;
2023/12/03 17:43:54;;;;;;;32.10;17.35;;;-2.30;99.90;;;;;;4893983;29;20155;-86
2023/12/03 17:46:20;;;;;;;32.63;18.00;;;-2.30;99.90;;;;;;4878587;29;20024;-83
2023/12/03 17:48:47;;;;;;;32.70;17.40;;;-2.30;99.90;;;;;;4884956;29;20037;-82
2023/12/03 17:51:20;;;;;;;31.95;16.85;;;-2.30;99.90;;;;;;4880831;29;20046;-84
2023/12/03 17:53:49;;;;;;;32.60;17.75;;;-2.30;99.90;;;;;;4865505;29;20334;-81
2023/12/03 17:56:26;;;;;;;33.78;19.25;;;-2.30;99.90;;;;;;4880926;29;20375;-82
2023/12/03 17:59:07;;;;;;;37.13;18.90;;;-2.30;99.90;;;;;;4894684;29;20040;-81
2023/12/03 18:02:02;;;;;;;34.95;19.02;;;-2.40;99.90;;;;;;4874431;29;20032;-81
2023/12/03 18:04:28;;;;;;;36.10;19.83;;;-2.40;99.90;;;;;;4893537;29;20033;-83
2023/12/03 18:06:54;;;;;;;37.80;18.90;;;-2.40;99.90;;;;;;4893151;29;20053;-78
2023/12/03 18:09:20;;;;;;;37.63;19.77;;;-2.50;99.90;;;;;;4888896;29;20196;-78
2023/12/03 18:11:46;;;;;;;39.45;20.48;;;-2.60;99.90;;;;;;4887966;29;20120;-80
2023/12/03 18:14:15;;;;;;;35.20;19.73;;;-2.60;99.90;;;;;;4887603;29;20045;-80
2023/12/03 18:16:41;;;;;;;35.67;19.55;;;-2.60;99.90;;;;;;4872529;29;20140;-79
2023/12/03 18:19:07;;;;;;;38.72;19.73;;;-2.60;99.90;;;;;;4917162;29;20054;-79
2023/12/03 18:21:33;;;;;;;41.20;20.80;;;-2.60;99.90;;;;;;4888409;29;20029;-79
2023/12/03 18:23:59;;;;;;;38.95;21.33;;;-2.60;99.90;;;;;;4888358;29;20093;-80
2023/12/03 18:29:13;;;;;;;37.53;19.92;;;-2.60;99.90;;;;;;4888742;29;20037;-81
2023/12/03 18:31:40;;;;;;;40.50;21.65;;;-2.50;99.90;;;;;;4884591;29;20025;-81
2023/12/03 18:34:18;;;;;;;40.90;21.20;;;-2.50;99.90;;;;;;4884118;29;20260;-80
2023/12/03 18:36:47;;;;;;;36.33;19.38;;;-2.50;99.90;;;;;;4892047;29;20052;-80
2023/12/03 18:39:15;;;;;;;37.25;21.23;;;-2.50;99.90;;;;;;4875166;29;20319;-81
2023/12/03 18:41:47;;;;;;;39.65;21.38;;;-2.50;99.90;;;;;;4859261;29;20261;-79
2023/12/03 18:44:28;;;;;;;37.28;20.67;;;-2.50;99.90;;;;;;4858522;29;20052;-85
2023/12/03 18:47:12;;;;;;;43.20;22.52;;;-2.60;99.90;;;;;;4862986;29;20033;-79
2023/12/03 18:50:40;;;;;;;39.30;21.73;;;-2.50;99.90;;;;;;4877261;29;20211;-80
2023/12/03 18:53:09;;;;;;;37.85;21.05;;;-2.60;99.90;;;;;;4858299;29;20037;-82
2023/12/03 18:58:48;;;;;;;39.83;20.30;;;-2.50;99.90;;;;;;4875693;29;20038;-79
2023/12/03 19:01:42;;;;;;;40.15;21.75;;;-2.50;99.90;;;;;;4856046;29;20326;-79
2023/12/03 19:04:15;;;;;;;34.78;19.77;;;-2.50;99.90;;;;;;4858003;29;20200;-83
2023/12/03 19:06:44;;;;;;;42.90;21.83;;;-2.50;99.90;;;;;;4892288;29;20025;-79
2023/12/03 19:09:32;;;;;;;36.88;20.77;;;-2.40;99.90;;;;;;4875247;29;20086;-78
2023/12/03 19:11:58;;;;;;;40.35;20.75;;;-2.40;99.90;;;;;;4873752;29;20081;-77
2023/12/03 19:14:25;;;;;;;38.28;20.85;;;-2.40;99.90;;;;;;4857185;29;20303;-77
2023/12/03 19:17:14;;;;;;;33.92;20.48;;;-2.40;99.90;;;;;;4874593;29;20040;-77
2023/12/03 19:20:06;;;;;;;26.85;15.63;;;-2.40;99.90;;;;;;4871003;29;20109;-78
2023/12/03 19:22:47;;;;;;;39.55;21.10;;;-2.40;99.90;;;;;;4870766;29;20033;-77
2023/12/03 19:25:18;;;;;;;38.83;21.23;;;-2.50;99.90;;;;;;4869172;29;20037;-77
2023/12/03 19:28:06;;;;;;;41.42;21.80;;;-2.50;99.90;;;;;;4869729;29;20044;-78
2023/12/03 19:30:44;;;;;;;41.80;22.23;;;-2.50;99.90;;;;;;4870576;29;20029;-77
2023/12/03 19:33:30;;;;;;;37.95;21.15;;;-2.50;99.90;;;;;;4869951;29;20046;-76
2023/12/03 19:36:41;;;;;;;38.20;20.23;;;-2.50;99.90;;;;;;4860261;29;20037;-79
2023/12/03 19:39:26;;;;;;;38.45;21.27;;;-2.50;99.90;;;;;;4840208;29;20265;-77
2023/12/03 19:42:26;;;;;;;37.17;19.65;;;-2.60;99.90;;;;;;4856339;29;20105;-78
2023/12/03 19:45:15;;;;;;;38.65;21.23;;;-2.50;99.90;;;;;;4853255;29;20034;-76
2023/12/03 19:47:47;;;;;;;35.90;19.67;;;-2.60;99.90;;;;;;4849724;29;20048;-80
2023/12/03 19:50:41;;;;;;;39.13;21.05;;;-2.60;99.90;;;;;;4838317;29;20287;-78
2023/12/03 19:53:07;;;;;;;35.28;19.77;;;-2.50;99.90;;;;;;4856335;29;20041;-78
2023/12/03 19:55:42;;;;;;;38.90;20.83;;;-2.60;99.90;;;;;;4868647;29;20164;-78
2023/12/03 19:58:18;;;;;;;35.70;19.95;;;-2.50;99.90;;;;;;4884732;29;20052;-77
2023/12/03 20:00:56;;;;;;;35.15;19.67;;;-2.60;99.90;;;;;;4887030;29;20112;-80
2023/12/03 20:03:27;;;;;;;;;;;-2.60;99.90;;;;;;4871773;29;20086;-77
2023/12/03 20:05:57;;;;;;;33.22;18.75;;;-2.60;99.90;;;;;;4896740;29;19907;-75
2023/12/03 20:08:57;;;;;;;36.25;20.10;;;-2.60;99.90;;;;;;4904239;29;20131;-77
2023/12/03 20:11:32;;;;;;;37.78;20.52;;;-2.60;99.90;;;;;;4889762;29;20111;-76
2023/12/03 20:14:04;;;;;;;38.83;20.88;;;-2.70;99.90;;;;;;4923740;29;20032;-76
2023/12/03 20:16:38;;;;;;;35.72;20.23;;;-2.70;99.90;;;;;;4924987;29;20121;-77
2023/12/03 20:19:06;;;;;;;39.92;21.40;;;-2.70;99.90;;;;;;4921733;29;20096;-77
2023/12/03 20:21:32;;;;;;;35.63;19.17;;;-2.70;99.90;;;;;;4920573;29;20046;-78
2023/12/03 20:23:59;;;;;;;34.30;19.77;;;-2.70;99.90;;;;;;4905998;29;20067;-79
2023/12/03 20:27:06;;;;;;;36.95;19.85;;;-2.60;99.90;;;;;;4850865;29;20076;-78
2023/12/03 20:29:38;;;;;;;34.75;19.10;;;-2.60;99.90;;;;;;4886012;29;20072;-77
2023/12/03 20:32:15;;;;;;;34.55;19.08;;;-2.60;99.90;;;;;;4870754;29;20054;-78
2023/12/03 20:34:41;;;;;;;;;;;-2.60;99.90;;;;;;4887643;29;20049;-76
2023/12/03 20:37:08;;;;;;;32.72;19.00;;;-2.70;99.90;;;;;;4901935;29;19908;-78
2023/12/03 20:39:51;;;;;;;32.80;19.27;;;-2.70;99.90;;;;;;4901143;29;20088;-76
2023/12/03 20:42:26;;;;;;;34.10;18.20;;;-2.70;99.90;;;;;;4891223;29;20039;-76
2023/12/03 20:44:59;;;;;;;31.77;17.23;;;-2.70;99.90;;;;;;4887647;29;20226;-78
2023/12/03 20:47:24;;;;;;;31.42;17.52;;;-2.70;99.90;;;;;;4887388;29;20040;-78
2023/12/03 20:49:53;;;;;;;33.15;19.05;;;-2.70;99.90;;;;;;4871418;29;20160;-78
2023/12/03 20:52:20;;;;;;;32.47;17.88;;;-2.70;99.90;;;;;;4888212;29;20041;-75
2023/12/03 20:54:47;;;;;;;35.15;17.30;;;-2.80;99.90;;;;;;4871169;29;20047;-76
2023/12/03 20:57:14;;;;;;;31.02;17.92;;;-2.80;99.90;;;;;;4867401;29;20342;-78
2023/12/03 20:59:40;;;;;;;32.07;18.07;;;-2.80;99.90;;;;;;4909219;29;20095;-75
2023/12/03 21:02:11;;;;;;;32.00;18.10;;;-2.80;99.90;;;;;;4863999;29;20616;-77
2023/12/03 21:04:42;;;;;;;31.90;18.30;;;-2.80;99.90;;;;;;4873174;29;20075;-78
2023/12/03 21:07:17;;;;;;;34.50;18.35;;;-2.90;99.90;;;;;;4908028;29;20029;-77
2023/12/03 21:09:43;;;;;;;33.28;18.65;;;-2.80;99.90;;;;;;4877127;29;20035;-77
2023/12/03 21:12:12;;;;;;;30.95;17.15;;;-2.90;99.90;;;;;;4908674;29;20341;-76
2023/12/03 21:14:38;;;;;;;30.90;17.50;;;-2.90;99.90;;;;;;4909733;29;20219;-77
2023/12/03 21:17:06;;;;;;;30.75;16.85;;;-2.90;99.90;;;;;;4910989;29;20051;-77
2023/12/03 21:19:32;;;;;;;33.13;17.92;;;-2.90;99.90;;;;;;4892865;29;20218;-76
2023/12/03 21:22:06;;;;;;;33.53;18.20;;;-2.90;99.90;;;;;;4877667;29;20056;-76
2023/12/03 21:24:32;;;;;;;33.35;18.15;;;-2.90;99.90;;;;;;4909107;29;20033;-77
2023/12/03 21:26:57;;;;;;;30.85;16.52;;;-2.90;99.90;;;;;;4909494;29;20024;-77
2023/12/03 21:29:35;;;;;;;32.78;17.95;;;-2.90;99.90;;;;;;4877017;29;20047;-77
2023/12/03 21:32:25;;;;;;;33.03;17.10;;;-3.00;99.90;;;;;;4907938;29;20043;-76
2023/12/03 21:34:54;;;;;;;34.03;16.63;;;-3.00;99.90;;;;;;4882521;29;20045;-78
2023/12/03 21:37:20;;;;;;;29.35;16.15;;;-3.00;99.90;;;;;;4890809;29;20056;-76
2023/12/03 21:39:45;;;;;;;29.50;16.75;;;-3.00;99.90;;;;;;4891253;29;20061;-77
2023/12/03 21:42:17;;;;;;;29.65;16.42;;;-3.00;99.90;;;;;;4891427;29;20040;-75
2023/12/03 21:45:20;;;;;;;31.60;16.95;;;-3.00;99.90;;;;;;4905578;29;20045;-77
2023/12/03 21:47:49;;;;;;;36.13;18.80;;;-3.00;99.90;;;;;;4863756;29;20044;-75